Time;durP1;ratioP1;P1;durP2;ratioP2;P2;SDS_P1;SDS_P2;PMS_P1;PMS_P2;Temp;Humidity;BMP_temperature;BMP_pressure;BME280_temperature;BME280_humidity;BME280_pressure;Samples;Min_cycle;Max_cycle;Signal;HPM_P1;HPM_P2
2022/03/16 00:01:28;;;;;;;9.25;8.65;;;5.10;99.90;;;;;;5084001;28;20679;-59
2022/03/16 00:04:08;;;;;;;8.73;8.02;;;5.00;99.90;;;;;;5104657;27;20541;-58
2022/03/16 00:06:47;;;;;;;8.82;8.23;;;5.00;99.90;;;;;;5084974;27;20699;-58
2022/03/16 00:09:27;;;;;;;8.93;8.32;;;5.00;99.90;;;;;;5083930;27;20540;-59
2022/03/16 00:12:08;;;;;;;8.70;8.10;;;5.00;99.90;;;;;;5105423;27;21078;-57
2022/03/16 00:14:47;;;;;;;9.50;8.85;;;5.00;99.90;;;;;;5104529;27;20576;-59
2022/03/16 00:17:27;;;;;;;10.30;9.70;;;5.00;99.90;;;;;;5084331;28;20676;-58
2022/03/16 00:20:08;;;;;;;10.60;9.88;;;5.00;99.90;;;;;;5103893;27;20560;-59
2022/03/16 00:22:48;;;;;;;8.13;7.63;;;4.90;99.90;;;;;;5103561;27;20583;-59
2022/03/16 00:25:28;;;;;;;8.20;7.70;;;4.70;99.90;;;;;;5104718;27;20669;-59
2022/03/16 00:28:08;;;;;;;7.72;7.22;;;4.70;99.90;;;;;;5104851;27;20537;-59
2022/03/16 00:30:47;;;;;;;7.90;7.40;;;4.60;99.90;;;;;;5104180;27;21029;-58
2022/03/16 00:33:27;;;;;;;7.78;7.25;;;4.60;99.90;;;;;;5084260;28;20667;-59
2022/03/16 00:36:07;;;;;;;8.23;7.72;;;4.60;99.90;;;;;;5084696;28;20672;-58
2022/03/16 00:38:47;;;;;;;8.50;7.90;;;4.60;99.90;;;;;;5104852;27;20554;-58
2022/03/16 00:41:27;;;;;;;7.97;7.47;;;4.60;99.90;;;;;;5083940;28;20687;-59
2022/03/16 00:44:07;;;;;;;7.45;6.95;;;4.60;99.90;;;;;;5084689;28;21027;-58
2022/03/16 00:46:46;;;;;;;6.32;5.90;;;4.60;99.90;;;;;;5084628;27;20907;-58
2022/03/16 00:49:26;;;;;;;6.47;6.07;;;4.60;99.90;;;;;;5104217;27;20677;-58
2022/03/16 00:52:07;;;;;;;6.90;6.50;;;4.60;99.90;;;;;;5125335;27;20559;-58
2022/03/16 00:54:46;;;;;;;6.15;5.75;;;4.50;99.90;;;;;;5084538;28;20667;-58
2022/03/16 00:57:26;;;;;;;6.07;5.68;;;4.40;99.90;;;;;;5104707;27;21070;-58
2022/03/16 01:00:07;;;;;;;6.20;5.70;;;4.30;99.90;;;;;;5084102;28;21181;-58
2022/03/16 01:02:47;;;;;;;6.30;5.90;;;4.30;99.90;;;;;;5125692;27;20560;-59
2022/03/16 01:05:27;;;;;;;5.70;5.40;;;4.30;99.90;;;;;;5146221;27;20669;-58
2022/03/16 01:08:07;;;;;;;6.07;5.68;;;4.20;99.90;;;;;;5084788;28;20660;-59
2022/03/16 01:10:46;;;;;;;6.75;6.32;;;4.20;99.90;;;;;;5104804;27;20541;-59
2022/03/16 01:13:26;;;;;;;7.05;6.55;;;4.20;99.90;;;;;;5146290;27;20677;-58
2022/03/16 01:16:06;;;;;;;7.60;7.10;;;4.20;99.90;;;;;;5085344;28;20675;-59
2022/03/16 01:18:46;;;;;;;7.13;6.63;;;4.20;99.90;;;;;;5083699;27;20554;-59
2022/03/16 01:21:26;;;;;;;7.10;6.60;;;4.30;99.90;;;;;;5082399;28;21200;-59
2022/03/16 01:24:06;;;;;;;7.50;7.00;;;4.30;99.90;;;;;;5084724;28;21072;-59
2022/03/16 01:26:45;;;;;;;8.00;7.50;;;4.30;99.90;;;;;;5105340;27;20573;-59
2022/03/16 01:29:25;;;;;;;7.47;6.97;;;4.30;99.90;;;;;;5084362;28;20683;-58
2022/03/16 01:32:06;;;;;;;8.48;7.88;;;4.30;99.90;;;;;;5084862;28;21042;-59
2022/03/16 01:34:45;;;;;;;8.00;7.50;;;4.30;99.90;;;;;;5104985;27;20541;-58
2022/03/16 01:37:25;;;;;;;7.82;7.32;;;4.30;99.90;;;;;;5084420;27;20553;-59
2022/03/16 01:40:06;;;;;;;8.48;7.88;;;4.30;99.90;;;;;;5104272;27;20545;-59
2022/03/16 01:42:46;;;;;;;8.77;8.27;;;4.30;99.90;;;;;;5084737;27;20911;-58
2022/03/16 01:45:26;;;;;;;8.63;8.02;;;4.30;99.90;;;;;;5084730;27;20543;-59
2022/03/16 01:48:06;;;;;;;8.95;8.40;;;4.30;99.90;;;;;;5083960;28;20668;-59
2022/03/16 01:50:45;;;;;;;9.48;8.88;;;4.30;99.90;;;;;;5103777;27;20669;-59
2022/03/16 01:53:26;;;;;;;9.93;9.13;;;4.30;99.90;;;;;;5084295;28;21023;-59
2022/03/16 01:56:06;;;;;;;9.40;8.80;;;4.30;99.90;;;;;;5084505;27;21133;-59
2022/03/16 01:58:47;;;;;;;9.30;8.70;;;4.30;99.90;;;;;;5084332;28;20664;-59
2022/03/16 02:01:26;;;;;;;9.50;8.80;;;4.30;99.90;;;;;;5145836;27;20542;-58
2022/03/16 02:04:06;;;;;;;9.60;9.00;;;4.30;99.90;;;;;;5104478;27;20594;-59
2022/03/16 02:06:46;;;;;;;9.02;8.43;;;4.20;99.90;;;;;;5104896;27;21179;-59
2022/03/16 02:09:26;;;;;;;8.77;8.18;;;4.20;99.90;;;;;;5124246;27;20559;-58
2022/03/16 02:12:07;;;;;;;8.55;8.00;;;4.20;99.90;;;;;;5125766;27;20568;-59
2022/03/16 02:14:47;;;;;;;8.52;7.93;;;4.20;99.90;;;;;;5084386;27;21131;-58
2022/03/16 02:17:33;;;;;;;8.55;7.95;;;4.20;99.90;;;;;;5085949;27;20584;-58
2022/03/16 02:20:13;;;;;;;9.82;9.13;;;4.20;99.90;;;;;;5103729;27;21078;-59
2022/03/16 02:22:55;;;;;;;9.85;9.15;;;4.10;99.90;;;;;;5082905;27;20551;-59
2022/03/16 02:25:47;;;;;;;9.43;8.82;;;4.10;99.90;;;;;;5084522;27;20539;-58
2022/03/16 02:28:27;;;;;;;8.93;8.35;;;4.10;99.90;;;;;;5084566;28;21080;-59
2022/03/16 02:31:07;;;;;;;9.68;8.98;;;4.10;99.90;;;;;;5083522;28;20680;-59
2022/03/16 02:33:47;;;;;;;10.13;9.43;;;4.10;99.90;;;;;;5084603;27;20755;-59
2022/03/16 02:36:27;;;;;;;9.77;9.07;;;4.20;99.90;;;;;;5085114;28;20672;-59
2022/03/16 02:39:06;;;;;;;9.50;8.90;;;4.20;99.90;;;;;;5084345;28;20679;-58
2022/03/16 02:41:50;;;;;;;9.05;8.45;;;4.20;99.90;;;;;;5084743;28;21092;-59
2022/03/16 02:44:29;;;;;;;10.13;9.43;;;4.20;99.90;;;;;;5084860;27;20911;-59
2022/03/16 02:47:09;;;;;;;9.82;9.10;;;4.30;99.90;;;;;;5084607;28;20660;-58
2022/03/16 02:49:49;;;;;;;9.85;9.15;;;4.20;99.90;;;;;;5104237;27;20545;-59
2022/03/16 02:52:29;;;;;;;10.10;9.40;;;4.20;99.90;;;;;;5082896;28;20668;-59
2022/03/16 02:55:09;;;;;;;11.00;10.30;;;4.20;99.90;;;;;;5084731;28;20695;-58
2022/03/16 02:57:50;;;;;;;11.85;10.95;;;4.20;99.90;;;;;;5104800;27;20550;-58
2022/03/16 03:00:30;;;;;;;10.82;9.93;;;4.20;99.90;;;;;;5084529;27;20539;-59
2022/03/16 03:03:10;;;;;;;11.02;10.23;;;4.20;99.90;;;;;;5084743;27;20544;-59
2022/03/16 03:05:49;;;;;;;10.95;10.25;;;4.20;99.90;;;;;;5084855;27;20543;-59
2022/03/16 03:08:29;;;;;;;11.13;10.43;;;4.30;99.90;;;;;;5104604;27;21135;-58
2022/03/16 03:11:09;;;;;;;10.88;10.18;;;4.20;99.90;;;;;;5104354;27;20568;-59
2022/03/16 03:13:49;;;;;;;10.85;10.13;;;4.20;99.90;;;;;;5104674;27;20542;-58
2022/03/16 03:16:29;;;;;;;11.48;10.68;;;4.20;99.90;;;;;;5085100;28;20679;-59
2022/03/16 03:19:08;;;;;;;11.27;10.50;;;4.20;99.90;;;;;;5104064;27;20541;-58
2022/03/16 03:21:49;;;;;;;11.10;10.35;;;4.20;99.90;;;;;;5083076;27;21163;-59
2022/03/16 03:24:28;;;;;;;10.38;9.68;;;4.20;99.90;;;;;;5084912;27;20543;-58
2022/03/16 03:27:08;;;;;;;11.65;10.75;;;4.20;99.90;;;;;;5146407;27;20546;-59
2022/03/16 03:29:48;;;;;;;12.23;11.23;;;4.20;99.90;;;;;;5083534;28;20688;-59
2022/03/16 03:32:28;;;;;;;10.73;9.93;;;4.00;99.90;;;;;;5084770;28;21043;-58
2022/03/16 03:35:08;;;;;;;10.85;10.10;;;3.80;99.90;;;;;;5084123;28;20564;-59
2022/03/16 03:37:51;;;;;;;10.82;10.13;;;3.60;99.90;;;;;;5084222;28;20679;-59
2022/03/16 03:40:30;;;;;;;11.13;10.32;;;3.60;99.90;;;;;;5103989;27;20549;-59
2022/03/16 03:43:10;;;;;;;12.07;11.25;;;3.70;99.90;;;;;;5104910;27;20545;-59
2022/03/16 03:45:50;;;;;;;10.90;10.15;;;3.70;99.90;;;;;;5104922;27;20550;-59
2022/03/16 03:48:30;;;;;;;10.90;10.20;;;3.70;99.90;;;;;;5104728;27;21047;-57
2022/03/16 03:51:10;;;;;;;12.27;11.40;;;3.80;99.90;;;;;;5083931;28;20676;-59
2022/03/16 03:53:49;;;;;;;11.43;10.63;;;3.90;99.90;;;;;;5104979;27;20545;-59
2022/03/16 03:56:29;;;;;;;11.52;10.73;;;3.90;99.90;;;;;;5146215;27;20542;-58
2022/03/16 03:59:09;;;;;;;12.05;11.23;;;3.90;99.90;;;;;;5124947;27;20970;-59
2022/03/16 04:01:49;;;;;;;13.15;12.18;;;4.00;99.90;;;;;;5125485;27;21298;-59
2022/03/16 04:04:29;;;;;;;13.00;11.93;;;4.00;99.90;;;;;;5145975;27;20547;-59
2022/03/16 04:07:08;;;;;;;12.73;11.82;;;4.10;99.90;;;;;;5105404;27;20665;-59
2022/03/16 04:09:50;;;;;;;12.63;11.73;;;4.10;99.90;;;;;;5104474;27;20542;-58
2022/03/16 04:12:30;;;;;;;12.82;11.93;;;4.10;99.90;;;;;;5104814;27;20565;-59
2022/03/16 04:15:10;;;;;;;12.10;11.20;;;4.20;99.90;;;;;;5084455;27;21142;-59
2022/03/16 04:17:49;;;;;;;12.38;11.48;;;4.30;99.90;;;;;;5125400;27;20552;-58
2022/03/16 04:20:29;;;;;;;12.77;11.75;;;4.30;99.90;;;;;;5124605;27;20540;-59
2022/03/16 04:23:10;;;;;;;12.35;11.32;;;4.30;99.90;;;;;;5084567;27;20539;-59
2022/03/16 04:25:49;;;;;;;12.55;11.65;;;4.20;99.90;;;;;;5104925;27;20657;-58
2022/03/16 04:28:29;;;;;;;12.65;11.75;;;4.10;99.90;;;;;;5084328;28;20675;-59
2022/03/16 04:31:08;;;;;;;13.70;12.75;;;4.10;99.90;;;;;;5083666;27;20563;-59
2022/03/16 04:33:48;;;;;;;12.32;11.40;;;4.10;99.90;;;;;;5084560;28;20680;-59
2022/03/16 04:36:29;;;;;;;12.68;11.77;;;4.10;99.90;;;;;;5105148;27;21020;-59
2022/03/16 04:39:08;;;;;;;13.55;12.43;;;4.10;99.90;;;;;;5104538;27;21226;-58
2022/03/16 04:41:48;;;;;;;12.75;11.80;;;4.10;99.90;;;;;;5084973;28;20581;-59
2022/03/16 04:44:28;;;;;;;11.90;11.10;;;4.10;99.90;;;;;;5084899;28;20667;-59
2022/03/16 04:47:08;;;;;;;13.43;12.25;;;4.10;99.90;;;;;;5084985;27;20691;-59
2022/03/16 04:49:47;;;;;;;12.73;11.75;;;4.10;99.90;;;;;;5084043;27;20535;-59
2022/03/16 04:52:27;;;;;;;12.77;11.77;;;4.10;99.90;;;;;;5105279;27;20689;-59
2022/03/16 04:55:08;;;;;;;13.35;12.35;;;4.00;99.90;;;;;;5085038;28;20667;-58
2022/03/16 04:57:47;;;;;;;13.55;12.55;;;4.00;99.90;;;;;;5125494;27;20551;-59
2022/03/16 05:00:27;;;;;;;13.57;12.68;;;4.00;99.90;;;;;;5083358;27;20539;-59
2022/03/16 05:03:07;;;;;;;12.70;11.73;;;4.00;99.90;;;;;;5084369;28;21087;-59
2022/03/16 05:05:47;;;;;;;11.55;10.75;;;4.00;99.90;;;;;;5104768;27;21032;-59
2022/03/16 05:08:26;;;;;;;13.20;12.27;;;3.90;99.90;;;;;;5084560;27;20536;-59
2022/03/16 05:11:06;;;;;;;12.75;11.73;;;3.90;99.90;;;;;;5104128;27;20689;-59
2022/03/16 05:13:46;;;;;;;12.20;11.35;;;3.90;99.90;;;;;;5104340;27;20542;-59
2022/03/16 05:16:25;;;;;;;12.50;11.63;;;3.90;99.90;;;;;;5125728;27;21064;-58
2022/03/16 05:19:05;;;;;;;12.45;11.55;;;3.90;99.90;;;;;;5103671;27;21260;-59
2022/03/16 05:21:45;;;;;;;13.52;12.52;;;3.90;99.90;;;;;;5083386;27;20544;-59
2022/03/16 05:24:26;;;;;;;12.77;11.57;;;3.90;99.90;;;;;;5120276;27;20572;-59
2022/03/16 05:27:05;;;;;;;13.88;12.77;;;3.90;99.90;;;;;;5085196;27;20589;-58
2022/03/16 05:29:45;;;;;;;13.30;12.35;;;3.90;99.90;;;;;;5102282;27;20689;-59
2022/03/16 05:32:25;;;;;;;13.07;12.18;;;3.80;99.90;;;;;;5144957;27;20554;-59
2022/03/16 05:35:05;;;;;;;13.30;12.38;;;3.70;99.90;;;;;;5083382;28;20667;-58
2022/03/16 05:37:44;;;;;;;15.05;13.82;;;3.50;99.90;;;;;;5065959;28;20674;-59
2022/03/16 05:40:24;;;;;;;12.77;11.88;;;3.30;99.90;;;;;;5102892;27;20575;-59
2022/03/16 05:43:04;;;;;;;13.95;12.85;;;3.20;99.90;;;;;;5104049;27;20566;-59
2022/03/16 05:45:44;;;;;;;16.95;15.65;;;3.20;99.90;;;;;;5083805;28;21208;-59
2022/03/16 05:48:23;;;;;;;13.80;12.80;;;3.30;99.90;;;;;;5103951;27;21136;-59
2022/03/16 05:51:03;;;;;;;14.02;13.00;;;3.40;99.90;;;;;;5079154;28;20995;-59
2022/03/16 05:53:43;;;;;;;14.75;13.63;;;3.50;99.90;;;;;;5084250;28;20676;-58
2022/03/16 05:56:23;;;;;;;13.82;12.88;;;3.50;99.90;;;;;;5071604;28;20705;-59
2022/03/16 05:59:03;;;;;;;13.70;12.70;;;3.50;99.90;;;;;;5083791;28;21201;-59
2022/03/16 06:01:43;;;;;;;14.25;13.15;;;3.50;99.90;;;;;;5083834;27;21172;-59
2022/03/16 06:04:22;;;;;;;14.00;13.00;;;3.40;99.90;;;;;;5124911;27;20556;-59
2022/03/16 06:07:02;;;;;;;14.20;13.10;;;3.30;99.90;;;;;;5085046;27;20586;-58
2022/03/16 06:09:44;;;;;;;12.43;11.52;;;3.20;99.90;;;;;;5102692;27;20563;-59
2022/03/16 06:12:23;;;;;;;13.48;12.43;;;3.20;99.90;;;;;;5068859;28;20921;-59
2022/03/16 06:15:04;;;;;;;13.65;12.65;;;3.20;99.90;;;;;;5083335;27;20573;-59
2022/03/16 06:17:43;;;;;;;14.63;13.52;;;3.20;99.90;;;;;;5083397;28;20704;-59
2022/03/16 06:20:23;;;;;;;15.50;14.23;;;3.30;99.90;;;;;;5082725;27;21201;-58
2022/03/16 06:23:05;;;;;;;13.70;12.65;;;3.40;99.90;;;;;;5065989;27;21179;-59
2022/03/16 06:25:44;;;;;;;13.63;12.63;;;3.40;99.90;;;;;;5124788;27;20959;-58
2022/03/16 06:28:24;;;;;;;15.80;14.63;;;3.50;99.90;;;;;;5083790;27;20539;-59
2022/03/16 06:31:04;;;;;;;19.45;17.83;;;3.60;99.90;;;;;;5099905;27;21149;-59
2022/03/16 06:33:44;;;;;;;19.80;18.35;;;3.60;99.90;;;;;;5104612;27;20554;-58
2022/03/16 06:36:24;;;;;;;20.27;18.67;;;3.70;99.90;;;;;;5084817;27;20532;-58
2022/03/16 06:39:04;;;;;;;17.23;16.02;;;3.80;99.90;;;;;;5104765;27;20701;-58
2022/03/16 06:41:43;;;;;;;15.55;14.32;;;3.90;99.90;;;;;;5084770;28;21192;-59
2022/03/16 06:44:23;;;;;;;15.75;14.63;;;4.00;99.90;;;;;;5146617;27;20550;-58
2022/03/16 06:47:03;;;;;;;15.32;14.23;;;4.10;99.90;;;;;;5105216;27;20657;-59
2022/03/16 06:49:43;;;;;;;15.93;14.70;;;4.30;99.90;;;;;;5103918;27;20541;-58
2022/03/16 06:52:22;;;;;;;15.07;13.98;;;4.40;99.90;;;;;;5085174;27;20593;-59
2022/03/16 06:55:02;;;;;;;15.23;14.13;;;4.50;99.90;;;;;;5084265;27;20539;-59
2022/03/16 06:57:42;;;;;;;15.95;14.43;;;4.60;99.90;;;;;;5123796;27;20551;-58
2022/03/16 07:00:22;;;;;;;16.13;14.82;;;4.70;99.90;;;;;;5103813;27;20560;-58
2022/03/16 07:03:05;;;;;;;15.82;14.52;;;4.80;99.90;;;;;;5084609;27;20586;-58
2022/03/16 07:05:45;;;;;;;15.50;14.20;;;4.80;99.90;;;;;;5146294;27;20542;-59
2022/03/16 07:08:25;;;;;;;14.80;13.70;;;5.00;99.90;;;;;;5084683;27;20548;-58
2022/03/16 07:11:07;;;;;;;15.35;14.25;;;5.10;99.90;;;;;;5104769;27;20550;-58
2022/03/16 07:14:30;;;;;;;16.85;15.45;;;5.30;99.90;;;;;;5126353;27;20976;-58
2022/03/16 07:16:47;;;;;;;16.38;14.98;;;5.40;99.90;;;;;;5085081;28;20679;-59
2022/03/16 07:19:28;;;;;;;16.27;14.98;;;5.50;99.90;;;;;;5144954;27;20982;-57
2022/03/16 07:22:08;;;;;;;16.58;15.27;;;5.60;99.90;;;;;;5083384;28;20679;-58
2022/03/16 07:24:48;;;;;;;16.70;15.40;;;5.80;99.90;;;;;;5084502;27;20539;-58
2022/03/16 07:27:27;;;;;;;17.58;16.15;;;5.90;99.90;;;;;;5105115;27;20572;-58
2022/03/16 07:30:10;;;;;;;18.20;16.70;;;6.10;99.90;;;;;;5145476;27;21051;-58
2022/03/16 07:32:49;;;;;;;15.65;14.25;;;6.30;99.90;;;;;;5105323;27;20557;-57
2022/03/16 07:35:29;;;;;;;17.98;16.58;;;6.60;99.90;;;;;;5084373;28;20656;-58
2022/03/16 07:38:09;;;;;;;17.38;15.98;;;6.80;99.90;;;;;;5084699;28;20679;-58
2022/03/16 07:40:48;;;;;;;19.13;17.25;;;7.00;99.90;;;;;;5083682;27;20604;-58
2022/03/16 07:43:28;;;;;;;19.02;17.45;;;7.30;99.90;;;;;;5104759;27;20661;-57
2022/03/16 07:46:08;;;;;;;16.35;15.00;;;7.80;99.90;;;;;;5105556;27;20564;-58
2022/03/16 07:48:48;;;;;;;18.50;16.67;;;8.20;99.90;;;;;;5084383;28;20671;-58
2022/03/16 07:51:28;;;;;;;16.45;15.02;;;8.60;99.90;;;;;;5104426;27;20588;-58
2022/03/16 07:54:07;;;;;;;17.33;15.93;;;8.80;99.90;;;;;;5084462;27;20540;-57
2022/03/16 07:56:47;;;;;;;17.20;15.80;;;9.10;99.90;;;;;;5084774;27;20555;-58
2022/03/16 07:59:27;;;;;;;18.02;16.42;;;9.30;99.90;;;;;;5084111;27;21260;-58
2022/03/16 08:02:07;;;;;;;17.73;16.15;;;9.40;99.90;;;;;;5146463;27;20673;-58
2022/03/16 08:04:47;;;;;;;18.23;16.52;;;9.50;99.90;;;;;;5105242;27;20576;-58
2022/03/16 08:07:27;;;;;;;16.95;15.65;;;9.30;99.90;;;;;;5084839;28;20660;-58
2022/03/16 08:10:07;;;;;;;16.92;15.40;;;9.00;99.90;;;;;;5104571;27;20693;-58
2022/03/16 08:12:47;;;;;;;18.33;16.63;;;8.90;99.90;;;;;;5104715;27;20654;-58
2022/03/16 08:15:26;;;;;;;17.52;16.02;;;9.10;99.90;;;;;;5104609;27;21075;-57
2022/03/16 08:18:06;;;;;;;17.50;16.10;;;9.50;99.90;;;;;;5145097;27;20546;-58
2022/03/16 08:20:45;;;;;;;19.98;18.25;;;9.80;99.90;;;;;;5103090;27;20534;-58
2022/03/16 08:23:25;;;;;;;17.30;15.90;;;10.20;99.90;;;;;;5084512;27;20539;-58
2022/03/16 08:26:05;;;;;;;19.90;18.15;;;10.40;99.90;;;;;;5084862;28;21007;-58
2022/03/16 08:28:45;;;;;;;19.77;18.08;;;10.50;99.90;;;;;;5084255;27;20969;-58
2022/03/16 08:31:25;;;;;;;20.80;18.98;;;10.40;99.90;;;;;;5083751;27;20589;-58
2022/03/16 08:34:06;;;;;;;21.30;19.13;;;10.20;99.90;;;;;;5084807;28;20668;-58
2022/03/16 08:36:46;;;;;;;23.58;20.60;;;10.20;99.90;;;;;;5146043;27;20550;-58
2022/03/16 08:39:26;;;;;;;21.48;19.48;;;10.20;99.90;;;;;;5124216;27;20543;-58
2022/03/16 08:42:07;;;;;;;21.80;19.60;;;10.20;99.90;;;;;;5146012;27;20550;-58
2022/03/16 08:44:46;;;;;;;20.40;18.60;;;10.30;99.90;;;;;;5125224;27;20543;-58
2022/03/16 08:47:25;;;;;;;20.55;18.73;;;10.20;99.90;;;;;;5105188;27;20733;-57
2022/03/16 08:50:06;;;;;;;21.90;19.63;;;10.30;99.90;;;;;;5103782;27;20546;-57
2022/03/16 08:52:45;;;;;;;20.90;18.75;;;10.40;99.90;;;;;;5085026;27;20551;-58
2022/03/16 08:55:25;;;;;;;22.27;19.48;;;10.50;99.90;;;;;;5084754;28;20675;-58
2022/03/16 08:58:05;;;;;;;21.42;19.58;;;10.40;99.90;;;;;;5104885;27;20542;-58
2022/03/16 09:00:44;;;;;;;22.45;20.45;;;10.70;99.90;;;;;;5084092;28;20679;-58
2022/03/16 09:03:24;;;;;;;21.92;19.88;;;10.80;99.90;;;;;;5105088;27;21195;-57
2022/03/16 09:06:04;;;;;;;20.50;18.60;;;11.00;99.90;;;;;;5084802;27;21137;-58
2022/03/16 09:08:44;;;;;;;21.13;18.85;;;11.10;99.90;;;;;;5104600;27;20579;-57
2022/03/16 09:11:24;;;;;;;20.02;18.15;;;11.10;99.90;;;;;;5084009;28;20684;-58
2022/03/16 09:14:05;;;;;;;20.65;18.75;;;11.30;99.90;;;;;;5084520;27;20565;-58
2022/03/16 09:16:47;;;;;;;23.80;17.10;;;11.40;99.90;;;;;;5105078;27;20550;-58
2022/03/16 09:19:26;;;;;;;19.48;17.90;;;11.40;99.90;;;;;;5103678;27;21195;-57
2022/03/16 09:22:07;;;;;;;19.73;17.85;;;11.50;99.90;;;;;;5083069;28;21215;-57
2022/03/16 09:24:48;;;;;;;19.25;17.45;;;11.40;99.90;;;;;;5146234;27;20546;-58
2022/03/16 09:27:28;;;;;;;18.80;17.10;;;11.40;99.90;;;;;;5084927;28;21204;-58
2022/03/16 09:30:09;;;;;;;21.10;19.00;;;11.70;99.90;;;;;;5083682;28;20663;-57
2022/03/16 09:32:49;;;;;;;20.40;18.50;;;11.90;99.90;;;;;;5105215;27;20555;-58
2022/03/16 09:35:30;;;;;;;21.45;19.33;;;12.30;99.90;;;;;;5104781;27;21207;-58
2022/03/16 09:38:10;;;;;;;19.63;18.02;;;12.50;99.90;;;;;;5084313;27;20543;-58
2022/03/16 09:40:53;;;;;;;20.58;18.58;;;12.60;99.90;;;;;;5104233;27;20681;-58
2022/03/16 09:43:35;;;;;;;20.13;18.42;;;12.90;99.90;;;;;;5104625;27;20579;-58
2022/03/16 09:46:20;;;;;;;19.17;17.63;;;13.10;99.90;;;;;;5085037;28;20663;-58
2022/03/16 09:49:00;;;;;;;20.40;18.52;;;13.10;99.90;;;;;;5084137;28;20667;-57
2022/03/16 09:51:39;;;;;;;21.33;19.45;;;13.20;99.90;;;;;;5125430;27;20556;-58
2022/03/16 09:54:19;;;;;;;19.52;17.77;;;13.00;99.90;;;;;;5125216;27;21068;-58
2022/03/16 09:56:58;;;;;;;17.05;15.45;;;13.00;99.90;;;;;;5085130;27;21148;-58
2022/03/16 09:59:39;;;;;;;18.15;16.75;;;13.10;99.90;;;;;;5083616;28;20667;-58
2022/03/16 10:02:21;;;;;;;18.95;17.45;;;13.00;99.90;;;;;;5105973;27;20553;-58
2022/03/16 10:04:59;;;;;;;16.83;15.43;;;13.10;99.90;;;;;;5084943;28;20542;-58
2022/03/16 10:07:39;;;;;;;17.20;15.77;;;13.00;99.90;;;;;;5146656;27;20534;-58
2022/03/16 10:13:28;;;;;;;15.80;14.60;;;13.30;99.90;;;;;;5146319;27;20526;-58
2022/03/16 10:16:11;;;;;;;15.05;13.30;;;13.60;99.90;;;;;;5126324;27;20659;-57
2022/03/16 10:19:00;;;;;;;13.57;12.38;;;13.60;99.90;;;;;;5104932;27;20534;-58
2022/03/16 10:21:40;;;;;;;12.50;11.13;;;13.50;99.90;;;;;;5103290;27;20558;-57
2022/03/16 10:24:29;;;;;;;13.13;11.80;;;13.20;99.90;;;;;;5105029;27;21124;-58
2022/03/16 10:27:08;;;;;;;12.68;11.68;;;12.90;99.90;;;;;;5084685;28;20660;-58
2022/03/16 10:29:51;;;;;;;13.32;12.15;;;12.80;99.90;;;;;;5124847;27;20545;-58
2022/03/16 10:32:31;;;;;;;13.38;12.18;;;12.60;99.90;;;;;;5125704;27;20560;-57
2022/03/16 10:35:11;;;;;;;13.40;12.23;;;12.60;99.90;;;;;;5125603;27;20655;-58
2022/03/16 10:37:51;;;;;;;12.77;11.68;;;12.50;99.90;;;;;;5085736;28;20707;-58
2022/03/16 10:40:30;;;;;;;13.90;12.57;;;12.50;99.90;;;;;;5084374;27;20601;-57
2022/03/16 10:49:16;;;;;;;13.38;12.13;;;12.70;99.90;;;;;;5104189;27;20563;-57
2022/03/16 10:52:05;;;;;;;12.93;11.82;;;12.60;99.90;;;;;;5084982;28;20679;-58
2022/03/16 10:54:44;;;;;;;12.35;11.10;;;12.70;99.90;;;;;;5084620;27;20557;-58
2022/03/16 10:57:25;;;;;;;12.02;10.93;;;12.80;99.90;;;;;;5105411;27;20541;-58
2022/03/16 11:00:06;;;;;;;11.20;10.30;;;12.80;99.90;;;;;;5083765;28;20841;-57
2022/03/16 11:02:47;;;;;;;12.13;11.02;;;12.70;99.90;;;;;;5125873;27;20555;-58
2022/03/16 11:05:26;;;;;;;14.13;12.82;;;12.80;99.90;;;;;;5084771;28;20660;-58
2022/03/16 11:08:07;;;;;;;10.82;10.00;;;12.70;99.90;;;;;;5084854;28;20668;-58
2022/03/16 11:10:47;;;;;;;11.55;10.55;;;12.90;99.90;;;;;;5104625;27;20546;-57
2022/03/16 11:13:32;;;;;;;12.60;11.40;;;13.10;99.90;;;;;;5105647;27;20666;-58
2022/03/16 11:16:12;;;;;;;10.13;9.10;;;13.10;99.90;;;;;;5105262;27;20541;-58
2022/03/16 11:18:52;;;;;;;11.13;10.23;;;13.20;99.90;;;;;;5084743;27;21039;-57
2022/03/16 11:21:44;;;;;;;10.82;9.85;;;13.00;99.90;;;;;;5083240;27;21072;-58
2022/03/16 11:24:27;;;;;;;9.75;8.95;;;12.90;99.90;;;;;;5146507;27;20657;-58
2022/03/16 11:27:31;;;;;;;11.57;10.52;;;13.10;99.90;;;;;;5085104;28;20683;-58
2022/03/16 11:30:17;;;;;;;9.75;8.98;;;13.10;99.90;;;;;;5104251;27;21178;-58
2022/03/16 11:33:01;;;;;;;11.20;10.18;;;13.20;99.90;;;;;;5105444;27;20597;-58
2022/03/16 11:35:44;;;;;;;11.15;9.98;;;13.10;99.90;;;;;;5105261;27;20546;-57
2022/03/16 11:38:24;;;;;;;11.32;10.07;;;12.80;99.90;;;;;;5084598;27;20539;-58
2022/03/16 11:41:08;;;;;;;10.60;9.50;;;12.70;99.90;;;;;;5104553;27;20696;-59
2022/03/16 11:44:01;;;;;;;11.43;10.32;;;12.60;99.90;;;;;;5084306;27;20604;-58
2022/03/16 11:46:40;;;;;;;10.15;9.35;;;12.40;99.90;;;;;;5084641;27;20540;-58
2022/03/16 11:49:29;;;;;;;11.43;10.23;;;12.10;99.90;;;;;;5104220;27;20569;-57
2022/03/16 11:52:09;;;;;;;11.57;10.70;;;12.10;99.90;;;;;;5084311;28;20679;-58
2022/03/16 11:54:49;;;;;;;11.13;10.23;;;12.30;99.90;;;;;;5085084;27;20546;-58
2022/03/16 11:57:51;;;;;;;10.95;9.98;;;12.40;99.90;;;;;;5125890;27;20540;-57
2022/03/16 12:00:38;;;;;;;11.13;10.25;;;12.50;99.90;;;;;;5104058;27;20682;-58
2022/03/16 12:03:22;;;;;;;10.45;9.45;;;12.50;99.90;;;;;;5146018;27;20550;-58
2022/03/16 12:06:02;;;;;;;11.65;10.75;;;12.40;99.90;;;;;;5105253;27;20677;-58
2022/03/16 12:08:54;;;;;;;12.55;11.40;;;12.50;99.90;;;;;;5084111;27;20608;-58
2022/03/16 12:15:19;;;;;;;11.77;10.68;;;12.90;99.90;;;;;;5146232;27;20535;-58
2022/03/16 12:18:27;;;;;;;12.23;11.32;;;12.90;99.90;;;;;;5103476;27;20551;-58
2022/03/16 12:21:10;;;;;;;10.77;10.02;;;12.80;99.90;;;;;;5081498;28;20691;-57
2022/03/16 12:25:08;;;;;;;11.60;10.70;;;12.80;99.90;;;;;;5104184;27;20563;-58
2022/03/16 12:29:57;;;;;;;11.07;10.05;;;12.70;99.90;;;;;;5082851;27;20547;-58
2022/03/16 12:32:36;;;;;;;10.60;9.77;;;12.70;99.90;;;;;;5087991;27;20559;-57
2022/03/16 12:35:17;;;;;;;11.55;10.45;;;12.70;99.90;;;;;;5103065;27;21143;-58
2022/03/16 12:37:56;;;;;;;10.90;9.88;;;13.00;99.90;;;;;;5125229;27;20988;-58
2022/03/16 12:42:30;;;;;;;10.27;9.32;;;13.30;99.90;;;;;;5084200;27;20572;-58
2022/03/16 12:43:38;;;;;;;9.93;8.93;;;13.40;99.90;;;;;;5145513;27;20546;-58
2022/03/16 12:46:24;;;;;;;9.95;9.15;;;13.50;99.90;;;;;;5084287;28;20683;-58
2022/03/16 12:49:06;;;;;;;10.05;9.18;;;13.60;99.90;;;;;;5082935;28;20994;-58
2022/03/16 12:51:47;;;;;;;11.10;10.30;;;13.70;99.90;;;;;;5104421;27;20589;-58
2022/03/16 12:54:31;;;;;;;12.65;11.18;;;13.70;99.90;;;;;;5083764;27;20932;-58
2022/03/16 12:57:13;;;;;;;10.23;9.32;;;13.70;99.90;;;;;;5084666;27;20606;-58
2022/03/16 12:59:55;;;;;;;10.15;9.40;;;13.90;99.90;;;;;;5103323;27;20581;-58
2022/03/16 13:02:36;;;;;;;11.43;10.43;;;13.90;99.90;;;;;;5067721;28;21128;-58
2022/03/16 13:05:18;;;;;;;9.38;8.68;;;14.00;99.90;;;;;;5103916;27;20681;-58
2022/03/16 13:07:57;;;;;;;10.57;9.68;;;14.00;99.90;;;;;;5104753;27;20670;-57
2022/03/16 13:11:14;;;;;;;10.93;10.18;;;13.80;99.90;;;;;;5083186;27;20573;-57
2022/03/16 13:13:48;;;;;;;12.00;10.80;;;13.60;99.90;;;;;;5070360;28;21095;-58
2022/03/16 13:16:34;;;;;;;11.25;10.43;;;13.50;99.90;;;;;;5145834;27;20992;-58
2022/03/16 13:19:24;;;;;;;10.15;9.45;;;13.40;99.90;;;;;;5073230;28;20671;-58
2022/03/16 13:22:06;;;;;;;11.80;10.80;;;13.40;99.90;;;;;;5069839;27;20557;-58
2022/03/16 13:24:49;;;;;;;11.68;10.05;;;13.30;99.90;;;;;;5104553;27;20829;-55
2022/03/16 13:27:32;;;;;;;11.30;10.15;;;13.30;99.90;;;;;;5084949;28;20699;-58
2022/03/16 13:30:19;;;;;;;10.15;9.35;;;13.10;99.90;;;;;;5083375;27;20539;-58
2022/03/16 13:32:58;;;;;;;11.57;10.52;;;12.80;99.90;;;;;;5090571;27;20696;-58
2022/03/16 13:35:38;;;;;;;12.40;11.43;;;12.60;99.90;;;;;;5083851;28;20543;-57
2022/03/16 13:38:29;;;;;;;11.23;10.40;;;12.40;99.90;;;;;;5083969;28;20664;-58
2022/03/16 13:41:15;;;;;;;11.57;10.68;;;12.30;99.90;;;;;;5078843;27;20595;-58
2022/03/16 13:44:04;;;;;;;12.43;11.32;;;12.20;99.90;;;;;;5081743;28;21030;-58
2022/03/16 13:46:45;;;;;;;12.57;11.57;;;12.10;99.90;;;;;;5063039;27;20545;-58
2022/03/16 13:49:36;;;;;;;10.60;9.70;;;12.00;99.90;;;;;;5081298;27;20581;-57
2022/03/16 13:52:18;;;;;;;10.68;9.88;;;11.90;99.90;;;;;;5145652;27;20570;-58
2022/03/16 13:55:11;;;;;;;9.50;8.70;;;11.90;99.90;;;;;;5145613;27;20542;-58
2022/03/16 13:57:51;;;;;;;10.30;9.27;;;11.90;99.90;;;;;;5084632;27;20535;-58
2022/03/16 14:00:42;;;;;;;9.85;9.05;;;11.80;99.90;;;;;;5083076;27;20547;-57
2022/03/16 14:03:27;;;;;;;9.60;8.88;;;11.70;99.90;;;;;;5104021;27;20657;-57
2022/03/16 14:06:13;;;;;;;9.63;8.93;;;11.60;99.90;;;;;;5124627;27;20544;-58